Archival Weather

Los Angeles Intl

Los Angeles, California (KLAX)

Report from: Thursday, September 21, 2023 10:53 AM PDT
Current time: Saturday, March 2, 2024 12:59 AM PST

Current weather – Weather history – Daily summaries
Weather forecast

Temperature20.0°C (68.0°F)
Dew point15.6°C (60.1°F)
Winds 6 kts (3.1 m/s, 6.9 mph) Southwest (220°)
Visibility9 mi. (14.5 km)
Clouds Few clouds 1,700 ft. (518 m)
Ceiling: Broken clouds 2,900 ft. (884 m)
Broken clouds 4,900 ft. (1,494 m)
Altimeter29.95 in.Hg (1014 mB)
Relative humidity76 %
Density altitude801 ft. (244 m)
Sea-level pressure101.4 kPa (1014 mB, 29.95 in.Hg)
Max temp last 6 hours20.6°C (69.1°F)
Min temp last 6 hours17.8°C (64.0°F)
Remarks Automated weather observing station with precipitation discriminator
Variable
Pressure rising more slowly
Flight conditions Marginal Visual Meteorological Conditions
Raw dataKLAX 211753Z 22006KT 9SM FEW017 BKN029 BKN049 20/16 A2995 RMK AO2 SLP141 BKN029 V SCT T02000156 10206 20178 51009
An error has occurred. This application may no longer respond until reloaded. Reload 🗙